sensor_id;sensor_type;location;lat;lon;timestamp;temperature;humidity
17887;DHT22;9069;52.044;7.472;2023-04-01T00:01:09;14.00;99.90
17887;DHT22;9069;52.044;7.472;2023-04-01T00:03:38;14.10;99.90
17887;DHT22;9069;52.044;7.472;2023-04-01T00:06:05;14.00;99.90
17887;DHT22;9069;52.044;7.472;2023-04-01T00:08:32;14.00;99.90
17887;DHT22;9069;52.044;7.472;2023-04-01T00:10:59;14.00;99.90
17887;DHT22;9069;52.044;7.472;2023-04-01T00:13:26;14.00;99.90
17887;DHT22;9069;52.044;7.472;2023-04-01T00:15:54;14.00;99.90
17887;DHT22;9069;52.044;7.472;2023-04-01T00:18:23;13.90;99.90
17887;DHT22;9069;52.044;7.472;2023-04-01T00:20:50;13.90;99.90
17887;DHT22;9069;52.044;7.472;2023-04-01T00:23:19;14.00;99.90
17887;DHT22;9069;52.044;7.472;2023-04-01T00:25:46;14.00;99.90
17887;DHT22;9069;52.044;7.472;2023-04-01T00:28:19;13.90;99.90
17887;DHT22;9069;52.044;7.472;2023-04-01T00:30:48;13.90;99.90
17887;DHT22;9069;52.044;7.472;2023-04-01T00:33:15;13.90;99.90
17887;DHT22;9069;52.044;7.472;2023-04-01T00:35:43;13.90;99.90
17887;DHT22;9069;52.044;7.472;2023-04-01T00:38:10;13.90;99.90
17887;DHT22;9069;52.044;7.472;2023-04-01T00:40:41;13.90;99.90
17887;DHT22;9069;52.044;7.472;2023-04-01T00:43:12;13.90;99.90
17887;DHT22;9069;52.044;7.472;2023-04-01T00:45:41;13.90;99.90
17887;DHT22;9069;52.044;7.472;2023-04-01T00:48:23;13.90;99.90
17887;DHT22;9069;52.044;7.472;2023-04-01T00:51:01;13.90;99.90
17887;DHT22;9069;52.044;7.472;2023-04-01T00:53:30;13.90;99.90
17887;DHT22;9069;52.044;7.472;2023-04-01T00:56:30;13.90;99.90
17887;DHT22;9069;52.044;7.472;2023-04-01T00:59:01;13.90;99.90
17887;DHT22;9069;52.044;7.472;2023-04-01T01:01:32;13.90;99.90
17887;DHT22;9069;52.044;7.472;2023-04-01T01:03:59;13.90;99.90
17887;DHT22;9069;52.044;7.472;2023-04-01T01:06:42;13.90;99.90
17887;DHT22;9069;52.044;7.472;2023-04-01T01:12:13;13.90;99.90
17887;DHT22;9069;52.044;7.472;2023-04-01T01:18:03;13.80;99.90
17887;DHT22;9069;52.044;7.472;2023-04-01T01:26:52;13.80;99.90
17887;DHT22;9069;52.044;7.472;2023-04-01T01:32:20;13.80;99.90
17887;DHT22;9069;52.044;7.472;2023-04-01T01:37:52;13.80;99.90
17887;DHT22;9069;52.044;7.472;2023-04-01T01:40:20;13.80;99.90
17887;DHT22;9069;52.044;7.472;2023-04-01T01:42:52;13.80;99.90
17887;DHT22;9069;52.044;7.472;2023-04-01T01:45:21;13.80;99.90
17887;DHT22;9069;52.044;7.472;2023-04-01T01:47:50;13.70;99.90
17887;DHT22;9069;52.044;7.472;2023-04-01T01:50:19;13.70;99.90
17887;DHT22;9069;52.044;7.472;2023-04-01T01:52:47;13.80;99.90
17887;DHT22;9069;52.044;7.472;2023-04-01T01:55:30;13.80;99.90
17887;DHT22;9069;52.044;7.472;2023-04-01T01:58:00;13.80;99.90
17887;DHT22;9069;52.044;7.472;2023-04-01T02:00:28;13.80;99.90
17887;DHT22;9069;52.044;7.472;2023-04-01T02:02:57;13.80;99.90
17887;DHT22;9069;52.044;7.472;2023-04-01T02:05:27;13.80;99.90
17887;DHT22;9069;52.044;7.472;2023-04-01T02:08:13;13.80;99.90
17887;DHT22;9069;52.044;7.472;2023-04-01T02:10:45;13.80;99.90
17887;DHT22;9069;52.044;7.472;2023-04-01T02:13:23;13.80;99.90
17887;DHT22;9069;52.044;7.472;2023-04-01T02:15:54;13.80;99.90
17887;DHT22;9069;52.044;7.472;2023-04-01T02:18:23;13.80;99.90
17887;DHT22;9069;52.044;7.472;2023-04-01T02:20:51;13.80;99.90
17887;DHT22;9069;52.044;7.472;2023-04-01T02:23:18;13.80;99.90
17887;DHT22;9069;52.044;7.472;2023-04-01T02:25:46;13.80;99.90
17887;DHT22;9069;52.044;7.472;2023-04-01T02:28:14;13.80;99.90
17887;DHT22;9069;52.044;7.472;2023-04-01T02:30:44;13.80;99.90
17887;DHT22;9069;52.044;7.472;2023-04-01T02:33:12;13.80;99.90
17887;DHT22;9069;52.044;7.472;2023-04-01T02:35:39;13.80;99.90
17887;DHT22;9069;52.044;7.472;2023-04-01T02:38:06;13.80;99.90
17887;DHT22;9069;52.044;7.472;2023-04-01T02:40:46;13.70;99.90
17887;DHT22;9069;52.044;7.472;2023-04-01T02:43:13;13.70;99.90
17887;DHT22;9069;52.044;7.472;2023-04-01T02:45:40;13.80;99.90
17887;DHT22;9069;52.044;7.472;2023-04-01T02:48:06;13.70;99.90
17887;DHT22;9069;52.044;7.472;2023-04-01T02:50:33;13.70;99.90
17887;DHT22;9069;52.044;7.472;2023-04-01T02:53:01;13.70;99.90
17887;DHT22;9069;52.044;7.472;2023-04-01T02:55:30;13.70;99.90
17887;DHT22;9069;52.044;7.472;2023-04-01T02:57:58;13.70;99.90
17887;DHT22;9069;52.044;7.472;2023-04-01T03:00:26;13.70;99.90
17887;DHT22;9069;52.044;7.472;2023-04-01T03:02:53;13.70;99.90
17887;DHT22;9069;52.044;7.472;2023-04-01T03:05:20;13.70;99.90
17887;DHT22;9069;52.044;7.472;2023-04-01T03:07:47;13.70;99.90
17887;DHT22;9069;52.044;7.472;2023-04-01T03:10:14;13.70;99.90
17887;DHT22;9069;52.044;7.472;2023-04-01T03:12:41;13.60;99.90
17887;DHT22;9069;52.044;7.472;2023-04-01T03:15:10;13.60;99.90
17887;DHT22;9069;52.044;7.472;2023-04-01T03:17:38;13.60;99.90
17887;DHT22;9069;52.044;7.472;2023-04-01T03:20:06;13.60;99.90
17887;DHT22;9069;52.044;7.472;2023-04-01T03:22:35;13.60;99.90
17887;DHT22;9069;52.044;7.472;2023-04-01T03:25:04;13.60;99.90
17887;DHT22;9069;52.044;7.472;2023-04-01T03:27:31;13.60;99.90
17887;DHT22;9069;52.044;7.472;2023-04-01T03:29:58;13.60;99.90
17887;DHT22;9069;52.044;7.472;2023-04-01T03:32:28;13.60;99.90
17887;DHT22;9069;52.044;7.472;2023-04-01T03:34:55;13.60;99.90
17887;DHT22;9069;52.044;7.472;2023-04-01T03:37:22;13.60;99.90
17887;DHT22;9069;52.044;7.472;2023-04-01T03:39:50;13.60;99.90
17887;DHT22;9069;52.044;7.472;2023-04-01T03:42:17;13.60;99.90
17887;DHT22;9069;52.044;7.472;2023-04-01T03:44:44;13.60;99.90
17887;DHT22;9069;52.044;7.472;2023-04-01T03:47:11;13.60;99.90
17887;DHT22;9069;52.044;7.472;2023-04-01T03:49:38;13.60;99.90
17887;DHT22;9069;52.044;7.472;2023-04-01T03:52:11;13.60;99.90
17887;DHT22;9069;52.044;7.472;2023-04-01T03:54:38;13.60;99.90
17887;DHT22;9069;52.044;7.472;2023-04-01T03:57:05;13.60;99.90
17887;DHT22;9069;52.044;7.472;2023-04-01T03:59:33;13.60;99.90
17887;DHT22;9069;52.044;7.472;2023-04-01T04:02:00;13.60;99.90
17887;DHT22;9069;52.044;7.472;2023-04-01T04:04:29;13.60;99.90
17887;DHT22;9069;52.044;7.472;2023-04-01T04:06:57;13.60;99.90
17887;DHT22;9069;52.044;7.472;2023-04-01T04:09:25;13.60;99.90
17887;DHT22;9069;52.044;7.472;2023-04-01T04:11:51;13.60;99.90
17887;DHT22;9069;52.044;7.472;2023-04-01T04:14:18;13.60;99.90
17887;DHT22;9069;52.044;7.472;2023-04-01T04:16:47;13.60;99.90
17887;DHT22;9069;52.044;7.472;2023-04-01T04:19:13;13.60;99.90
17887;DHT22;9069;52.044;7.472;2023-04-01T04:21:41;13.60;99.90
17887;DHT22;9069;52.044;7.472;2023-04-01T04:24:08;13.60;99.90
17887;DHT22;9069;52.044;7.472;2023-04-01T04:26:55;13.60;99.90
17887;DHT22;9069;52.044;7.472;2023-04-01T04:29:22;13.60;99.90
17887;DHT22;9069;52.044;7.472;2023-04-01T04:31:49;13.60;99.90
17887;DHT22;9069;52.044;7.472;2023-04-01T04:34:16;13.60;99.90
17887;DHT22;9069;52.044;7.472;2023-04-01T04:36:45;13.60;99.90
17887;DHT22;9069;52.044;7.472;2023-04-01T04:39:12;13.60;99.90
17887;DHT22;9069;52.044;7.472;2023-04-01T04:41:41;13.60;99.90
17887;DHT22;9069;52.044;7.472;2023-04-01T04:44:08;13.60;99.90
17887;DHT22;9069;52.044;7.472;2023-04-01T04:46:34;13.60;99.90
17887;DHT22;9069;52.044;7.472;2023-04-01T04:49:11;13.60;99.90
17887;DHT22;9069;52.044;7.472;2023-04-01T04:51:37;13.50;99.90
17887;DHT22;9069;52.044;7.472;2023-04-01T04:54:05;13.60;99.90
17887;DHT22;9069;52.044;7.472;2023-04-01T04:57:01;13.60;99.90
17887;DHT22;9069;52.044;7.472;2023-04-01T04:59:32;13.70;99.90
17887;DHT22;9069;52.044;7.472;2023-04-01T05:02:16;13.60;99.90
17887;DHT22;9069;52.044;7.472;2023-04-01T05:04:43;13.60;99.90
17887;DHT22;9069;52.044;7.472;2023-04-01T05:07:10;13.60;99.90
17887;DHT22;9069;52.044;7.472;2023-04-01T05:09:37;13.60;99.90
17887;DHT22;9069;52.044;7.472;2023-04-01T05:12:04;13.60;99.90
17887;DHT22;9069;52.044;7.472;2023-04-01T05:14:50;13.60;99.90
17887;DHT22;9069;52.044;7.472;2023-04-01T05:17:17;13.60;99.90
17887;DHT22;9069;52.044;7.472;2023-04-01T05:19:44;13.60;99.90
17887;DHT22;9069;52.044;7.472;2023-04-01T05:22:10;13.60;99.90
17887;DHT22;9069;52.044;7.472;2023-04-01T05:24:37;13.60;99.90
17887;DHT22;9069;52.044;7.472;2023-04-01T05:27:04;13.70;99.90
17887;DHT22;9069;52.044;7.472;2023-04-01T05:29:31;13.60;99.90
17887;DHT22;9069;52.044;7.472;2023-04-01T05:32:03;13.60;99.90
17887;DHT22;9069;52.044;7.472;2023-04-01T05:34:30;13.60;99.90
17887;DHT22;9069;52.044;7.472;2023-04-01T05:36:57;13.60;99.90
17887;DHT22;9069;52.044;7.472;2023-04-01T05:39:23;13.70;99.90
17887;DHT22;9069;52.044;7.472;2023-04-01T05:41:50;13.70;99.90
17887;DHT22;9069;52.044;7.472;2023-04-01T05:44:17;13.70;99.90
17887;DHT22;9069;52.044;7.472;2023-04-01T05:47:04;13.70;99.90
17887;DHT22;9069;52.044;7.472;2023-04-01T05:49:33;13.70;99.90
17887;DHT22;9069;52.044;7.472;2023-04-01T05:52:02;13.70;99.90
17887;DHT22;9069;52.044;7.472;2023-04-01T05:54:30;13.70;99.90
17887;DHT22;9069;52.044;7.472;2023-04-01T05:56:56;13.70;99.90
17887;DHT22;9069;52.044;7.472;2023-04-01T05:59:23;13.70;99.90
17887;DHT22;9069;52.044;7.472;2023-04-01T06:01:50;13.70;99.90
17887;DHT22;9069;52.044;7.472;2023-04-01T06:04:19;13.70;99.90
17887;DHT22;9069;52.044;7.472;2023-04-01T06:06:46;13.70;99.90
17887;DHT22;9069;52.044;7.472;2023-04-01T06:09:19;13.70;99.90
17887;DHT22;9069;52.044;7.472;2023-04-01T06:21:21;13.80;99.90
17887;DHT22;9069;52.044;7.472;2023-04-01T06:23:32;13.80;99.90
17887;DHT22;9069;52.044;7.472;2023-04-01T06:36:47;13.90;99.90
17887;DHT22;9069;52.044;7.472;2023-04-01T06:42:16;14.00;99.90
17887;DHT22;9069;52.044;7.472;2023-04-01T06:45:01;14.00;99.90
17887;DHT22;9069;52.044;7.472;2023-04-01T06:51:50;14.00;99.90
17887;DHT22;9069;52.044;7.472;2023-04-01T06:54:42;14.10;99.90
17887;DHT22;9069;52.044;7.472;2023-04-01T06:57:51;14.10;99.90
17887;DHT22;9069;52.044;7.472;2023-04-01T07:02:55;14.10;99.90
17887;DHT22;9069;52.044;7.472;2023-04-01T07:05:30;14.20;99.90
17887;DHT22;9069;52.044;7.472;2023-04-01T07:08:01;14.20;99.90
17887;DHT22;9069;52.044;7.472;2023-04-01T07:13:36;14.20;99.90
17887;DHT22;9069;52.044;7.472;2023-04-01T07:16:41;14.30;99.90
17887;DHT22;9069;52.044;7.472;2023-04-01T07:19:21;14.30;99.90
17887;DHT22;9069;52.044;7.472;2023-04-01T07:22:04;14.30;99.90
17887;DHT22;9069;52.044;7.472;2023-04-01T07:25:07;14.40;99.90
17887;DHT22;9069;52.044;7.472;2023-04-01T07:27:38;14.40;99.90
17887;DHT22;9069;52.044;7.472;2023-04-01T07:30:20;14.40;99.90
17887;DHT22;9069;52.044;7.472;2023-04-01T07:33:02;14.40;99.90
17887;DHT22;9069;52.044;7.472;2023-04-01T07:38:52;14.50;99.90
17887;DHT22;9069;52.044;7.472;2023-04-01T07:47:26;14.50;99.90
17887;DHT22;9069;52.044;7.472;2023-04-01T07:56:06;14.60;99.90
17887;DHT22;9069;52.044;7.472;2023-04-01T08:07:06;14.70;99.90
17887;DHT22;9069;52.044;7.472;2023-04-01T08:09:49;14.70;99.90
17887;DHT22;9069;52.044;7.472;2023-04-01T08:19:09;14.70;99.90
17887;DHT22;9069;52.044;7.472;2023-04-01T08:21:45;14.80;99.90
17887;DHT22;9069;52.044;7.472;2023-04-01T08:24:46;14.80;99.90
17887;DHT22;9069;52.044;7.472;2023-04-01T08:27:28;14.80;99.90
17887;DHT22;9069;52.044;7.472;2023-04-01T08:30:16;14.80;99.90
17887;DHT22;9069;52.044;7.472;2023-04-01T08:32:58;14.90;99.90
17887;DHT22;9069;52.044;7.472;2023-04-01T08:35:30;14.90;99.90
17887;DHT22;9069;52.044;7.472;2023-04-01T08:38:12;14.90;99.90
17887;DHT22;9069;52.044;7.472;2023-04-01T08:40:57;14.90;99.90
17887;DHT22;9069;52.044;7.472;2023-04-01T08:43:48;15.00;99.90
17887;DHT22;9069;52.044;7.472;2023-04-01T08:52:48;15.00;99.90
17887;DHT22;9069;52.044;7.472;2023-04-01T08:55:25;15.00;99.90
17887;DHT22;9069;52.044;7.472;2023-04-01T09:12:02;15.10;99.90
17887;DHT22;9069;52.044;7.472;2023-04-01T09:14:52;15.10;99.90
17887;DHT22;9069;52.044;7.472;2023-04-01T09:17:36;15.20;99.90
17887;DHT22;9069;52.044;7.472;2023-04-01T09:20:23;15.20;99.90
17887;DHT22;9069;52.044;7.472;2023-04-01T09:25:46;15.20;99.90
17887;DHT22;9069;52.044;7.472;2023-04-01T09:37:07;15.30;99.90
17887;DHT22;9069;52.044;7.472;2023-04-01T09:45:46;15.40;99.90
17887;DHT22;9069;52.044;7.472;2023-04-01T10:23:31;15.50;99.90
17887;DHT22;9069;52.044;7.472;2023-04-01T10:26:25;15.50;99.90
17887;DHT22;9069;52.044;7.472;2023-04-01T10:32:36;15.50;99.90
17887;DHT22;9069;52.044;7.472;2023-04-01T10:38:02;15.60;99.90
17887;DHT22;9069;52.044;7.472;2023-04-01T10:41:01;15.60;99.90
17887;DHT22;9069;52.044;7.472;2023-04-01T10:59:02;15.80;99.90
17887;DHT22;9069;52.044;7.472;2023-04-01T11:13:58;15.90;99.90
17887;DHT22;9069;52.044;7.472;2023-04-01T11:16:47;15.80;99.90
17887;DHT22;9069;52.044;7.472;2023-04-01T11:25:14;15.90;99.90
17887;DHT22;9069;52.044;7.472;2023-04-01T11:43:21;15.90;99.90
17887;DHT22;9069;52.044;7.472;2023-04-01T11:52:47;16.00;99.90
17887;DHT22;9069;52.044;7.472;2023-04-01T11:55:45;16.00;99.90
17887;DHT22;9069;52.044;7.472;2023-04-01T12:11:45;16.30;99.90
17887;DHT22;9069;52.044;7.472;2023-04-01T12:14:19;16.30;99.90
17887;DHT22;9069;52.044;7.472;2023-04-01T12:17:02;16.40;99.90
17887;DHT22;9069;52.044;7.472;2023-04-01T12:19:54;16.40;99.90
17887;DHT22;9069;52.044;7.472;2023-04-01T12:22:38;16.50;99.90
17887;DHT22;9069;52.044;7.472;2023-04-01T12:25:51;16.60;99.90
17887;DHT22;9069;52.044;7.472;2023-04-01T12:28:56;16.60;99.90
17887;DHT22;9069;52.044;7.472;2023-04-01T12:31:32;16.70;99.90
17887;DHT22;9069;52.044;7.472;2023-04-01T12:40:26;16.80;99.90
17887;DHT22;9069;52.044;7.472;2023-04-01T12:45:34;16.90;99.90
17887;DHT22;9069;52.044;7.472;2023-04-01T12:53:30;17.10;99.90
17887;DHT22;9069;52.044;7.472;2023-04-01T12:56:03;17.10;99.90
17887;DHT22;9069;52.044;7.472;2023-04-01T13:07:16;17.20;99.60
17887;DHT22;9069;52.044;7.472;2023-04-01T13:12:44;17.30;99.90
17887;DHT22;9069;52.044;7.472;2023-04-01T13:18:05;17.20;99.90
17887;DHT22;9069;52.044;7.472;2023-04-01T13:39:39;17.10;99.50
17887;DHT22;9069;52.044;7.472;2023-04-01T13:45:10;17.00;99.60
17887;DHT22;9069;52.044;7.472;2023-04-01T14:07:18;16.70;99.90
17887;DHT22;9069;52.044;7.472;2023-04-01T14:12:56;16.60;99.90
17887;DHT22;9069;52.044;7.472;2023-04-01T14:15:46;16.50;99.90
17887;DHT22;9069;52.044;7.472;2023-04-01T14:40:28;15.70;99.90
17887;DHT22;9069;52.044;7.472;2023-04-01T14:48:50;15.60;99.90
17887;DHT22;9069;52.044;7.472;2023-04-01T14:51:36;15.50;99.90
17887;DHT22;9069;52.044;7.472;2023-04-01T14:59:30;15.30;99.90
17887;DHT22;9069;52.044;7.472;2023-04-01T15:02:06;15.30;99.90
17887;DHT22;9069;52.044;7.472;2023-04-01T15:04:57;15.20;99.90
17887;DHT22;9069;52.044;7.472;2023-04-01T15:19:20;14.80;99.90
17887;DHT22;9069;52.044;7.472;2023-04-01T15:31:09;14.50;99.90
17887;DHT22;9069;52.044;7.472;2023-04-01T15:53:22;14.10;99.90
17887;DHT22;9069;52.044;7.472;2023-04-01T15:59:09;14.00;99.90
17887;DHT22;9069;52.044;7.472;2023-04-01T16:01:54;14.00;99.90
17887;DHT22;9069;52.044;7.472;2023-04-01T16:15:37;13.80;99.90
17887;DHT22;9069;52.044;7.472;2023-04-01T16:18:27;13.80;99.90
17887;DHT22;9069;52.044;7.472;2023-04-01T16:21:06;13.80;99.90
17887;DHT22;9069;52.044;7.472;2023-04-01T16:29:29;13.70;99.90
17887;DHT22;9069;52.044;7.472;2023-04-01T16:35:23;13.70;99.90
17887;DHT22;9069;52.044;7.472;2023-04-01T16:37:56;13.70;99.90
17887;DHT22;9069;52.044;7.472;2023-04-01T16:40:44;13.70;99.90
17887;DHT22;9069;52.044;7.472;2023-04-01T16:43:19;13.70;99.90
17887;DHT22;9069;52.044;7.472;2023-04-01T16:46:13;13.60;99.90
17887;DHT22;9069;52.044;7.472;2023-04-01T16:48:49;13.60;99.90
17887;DHT22;9069;52.044;7.472;2023-04-01T16:51:22;13.60;99.90
17887;DHT22;9069;52.044;7.472;2023-04-01T16:54:00;13.50;99.90
17887;DHT22;9069;52.044;7.472;2023-04-01T16:56:42;13.50;99.90
17887;DHT22;9069;52.044;7.472;2023-04-01T17:01:45;13.40;99.90
17887;DHT22;9069;52.044;7.472;2023-04-01T17:04:43;13.30;99.90
17887;DHT22;9069;52.044;7.472;2023-04-01T17:18:47;13.10;99.90
17887;DHT22;9069;52.044;7.472;2023-04-01T17:21:21;13.00;99.90
17887;DHT22;9069;52.044;7.472;2023-04-01T17:29:24;12.90;99.90
17887;DHT22;9069;52.044;7.472;2023-04-01T17:37:28;12.80;99.90
17887;DHT22;9069;52.044;7.472;2023-04-01T17:40:21;12.70;99.90
17887;DHT22;9069;52.044;7.472;2023-04-01T17:45:54;12.60;99.90
17887;DHT22;9069;52.044;7.472;2023-04-01T17:48:41;12.60;99.90
17887;DHT22;9069;52.044;7.472;2023-04-01T18:00:03;12.40;99.90
17887;DHT22;9069;52.044;7.472;2023-04-01T18:05:36;12.30;99.90
17887;DHT22;9069;52.044;7.472;2023-04-01T18:16:17;12.10;99.90
17887;DHT22;9069;52.044;7.472;2023-04-01T18:19:11;12.00;99.90
17887;DHT22;9069;52.044;7.472;2023-04-01T18:22:08;12.00;99.90
17887;DHT22;9069;52.044;7.472;2023-04-01T18:24:50;11.90;99.90
17887;DHT22;9069;52.044;7.472;2023-04-01T18:27:24;11.90;99.90
17887;DHT22;9069;52.044;7.472;2023-04-01T18:36:02;11.80;99.90
17887;DHT22;9069;52.044;7.472;2023-04-01T18:38:39;11.70;99.90
17887;DHT22;9069;52.044;7.472;2023-04-01T18:41:13;11.70;99.90
17887;DHT22;9069;52.044;7.472;2023-04-01T18:52:19;11.60;99.90
17887;DHT22;9069;52.044;7.472;2023-04-01T19:00:18;11.50;99.90
17887;DHT22;9069;52.044;7.472;2023-04-01T19:03:02;11.50;99.90
17887;DHT22;9069;52.044;7.472;2023-04-01T19:05:34;11.40;99.90
17887;DHT22;9069;52.044;7.472;2023-04-01T19:08:38;11.40;99.90
17887;DHT22;9069;52.044;7.472;2023-04-01T19:11:31;11.30;99.90
17887;DHT22;9069;52.044;7.472;2023-04-01T19:14:44;11.30;99.90
17887;DHT22;9069;52.044;7.472;2023-04-01T19:17:25;11.20;99.90
17887;DHT22;9069;52.044;7.472;2023-04-01T19:20:20;11.20;99.90
17887;DHT22;9069;52.044;7.472;2023-04-01T19:28:26;11.00;99.90
17887;DHT22;9069;52.044;7.472;2023-04-01T19:36:36;11.00;99.90
17887;DHT22;9069;52.044;7.472;2023-04-01T19:56:12;10.80;99.90
17887;DHT22;9069;52.044;7.472;2023-04-01T19:58:56;10.80;99.90
17887;DHT22;9069;52.044;7.472;2023-04-01T20:01:35;10.80;99.90
17887;DHT22;9069;52.044;7.472;2023-04-01T20:04:47;10.80;99.90
17887;DHT22;9069;52.044;7.472;2023-04-01T20:07:23;10.70;99.90
17887;DHT22;9069;52.044;7.472;2023-04-01T20:15:33;10.70;99.90
17887;DHT22;9069;52.044;7.472;2023-04-01T20:18:26;10.60;99.90
17887;DHT22;9069;52.044;7.472;2023-04-01T20:21:16;10.60;99.90
17887;DHT22;9069;52.044;7.472;2023-04-01T20:24:02;10.60;99.90
17887;DHT22;9069;52.044;7.472;2023-04-01T20:26:40;10.60;99.90
17887;DHT22;9069;52.044;7.472;2023-04-01T20:29:18;10.60;99.90
17887;DHT22;9069;52.044;7.472;2023-04-01T20:34:50;10.50;99.90
17887;DHT22;9069;52.044;7.472;2023-04-01T20:37:42;10.50;99.90
17887;DHT22;9069;52.044;7.472;2023-04-01T20:45:37;10.40;99.90
17887;DHT22;9069;52.044;7.472;2023-04-01T20:51:15;10.30;99.90
17887;DHT22;9069;52.044;7.472;2023-04-01T20:54:05;10.30;99.90
17887;DHT22;9069;52.044;7.472;2023-04-01T20:56:52;10.30;99.90
17887;DHT22;9069;52.044;7.472;2023-04-01T21:31:27;10.00;99.90
17887;DHT22;9069;52.044;7.472;2023-04-01T22:07:29;9.50;99.90
17887;DHT22;9069;52.044;7.472;2023-04-01T22:10:38;9.50;99.90
17887;DHT22;9069;52.044;7.472;2023-04-01T22:13:21;9.40;99.90
17887;DHT22;9069;52.044;7.472;2023-04-01T22:19:35;9.40;99.90
17887;DHT22;9069;52.044;7.472;2023-04-01T22:21:59;9.40;99.90
17887;DHT22;9069;52.044;7.472;2023-04-01T22:30:17;9.30;99.90
17887;DHT22;9069;52.044;7.472;2023-04-01T22:32:52;9.30;99.90
17887;DHT22;9069;52.044;7.472;2023-04-01T22:35:43;9.30;99.90
17887;DHT22;9069;52.044;7.472;2023-04-01T22:41:08;9.20;99.90
17887;DHT22;9069;52.044;7.472;2023-04-01T22:43:43;9.10;99.90
17887;DHT22;9069;52.044;7.472;2023-04-01T22:51:45;9.10;99.90
17887;DHT22;9069;52.044;7.472;2023-04-01T22:57:02;9.00;99.90
17887;DHT22;9069;52.044;7.472;2023-04-01T22:59:39;9.00;99.90
17887;DHT22;9069;52.044;7.472;2023-04-01T23:02:31;9.00;99.90
17887;DHT22;9069;52.044;7.472;2023-04-01T23:05:04;9.00;99.90
17887;DHT22;9069;52.044;7.472;2023-04-01T23:10:37;9.00;99.90
17887;DHT22;9069;52.044;7.472;2023-04-01T23:13:11;9.00;99.90
17887;DHT22;9069;52.044;7.472;2023-04-01T23:15:39;8.90;99.90
17887;DHT22;9069;52.044;7.472;2023-04-01T23:18:15;8.90;99.90
17887;DHT22;9069;52.044;7.472;2023-04-01T23:23:48;8.90;99.90
17887;DHT22;9069;52.044;7.472;2023-04-01T23:26:32;8.90;99.90
17887;DHT22;9069;52.044;7.472;2023-04-01T23:29:03;8.80;99.90
17887;DHT22;9069;52.044;7.472;2023-04-01T23:36:43;8.80;99.90
17887;DHT22;9069;52.044;7.472;2023-04-01T23:39:25;8.70;99.90
17887;DHT22;9069;52.044;7.472;2023-04-01T23:42:04;8.70;99.90
17887;DHT22;9069;52.044;7.472;2023-04-01T23:44:33;8.70;99.90
17887;DHT22;9069;52.044;7.472;2023-04-01T23:47:03;8.60;99.90
17887;DHT22;9069;52.044;7.472;2023-04-01T23:49:36;8.60;99.90
17887;DHT22;9069;52.044;7.472;2023-04-01T23:54:49;8.60;99.90
17887;DHT22;9069;52.044;7.472;2023-04-01T23:57:34;8.60;99.90
